sensor_id;sensor_type;location;lat;lon;timestamp;pressure;altitude;pressure_sealevel;temperature;humidity
72525;BME280;60547;48.502;8.996;2023-05-09T00:00:28;98181.59;;;13.22;100.00
72525;BME280;60547;48.502;8.996;2023-05-09T00:02:54;98176.91;;;13.19;100.00
72525;BME280;60547;48.502;8.996;2023-05-09T00:05:19;98150.28;;;13.02;100.00
72525;BME280;60547;48.502;8.996;2023-05-09T00:07:46;98132.84;;;12.98;100.00
72525;BME280;60547;48.502;8.996;2023-05-09T00:10:12;98187.75;;;13.30;100.00
72525;BME280;60547;48.502;8.996;2023-05-09T00:12:38;98174.34;;;13.25;100.00
72525;BME280;60547;48.502;8.996;2023-05-09T00:15:04;98143.13;;;13.01;100.00
72525;BME280;60547;48.502;8.996;2023-05-09T00:17:33;98191.00;;;13.29;100.00
72525;BME280;60547;48.502;8.996;2023-05-09T00:19:58;98154.75;;;13.12;100.00
72525;BME280;60547;48.502;8.996;2023-05-09T00:22:26;98142.91;;;13.08;100.00
72525;BME280;60547;48.502;8.996;2023-05-09T00:24:52;98132.63;;;13.05;100.00
72525;BME280;60547;48.502;8.996;2023-05-09T00:27:17;98176.25;;;13.28;100.00
72525;BME280;60547;48.502;8.996;2023-05-09T00:29:43;98177.03;;;13.29;100.00
72525;BME280;60547;48.502;8.996;2023-05-09T00:32:09;98148.28;;;13.15;100.00
72525;BME280;60547;48.502;8.996;2023-05-09T00:34:35;98164.84;;;13.22;100.00
72525;BME280;60547;48.502;8.996;2023-05-09T00:37:00;98138.44;;;13.11;100.00
72525;BME280;60547;48.502;8.996;2023-05-09T00:39:26;98132.84;;;12.98;100.00
72525;BME280;60547;48.502;8.996;2023-05-09T00:41:51;98153.00;;;13.18;100.00
72525;BME280;60547;48.502;8.996;2023-05-09T00:44:17;98165.28;;;13.34;100.00
72525;BME280;60547;48.502;8.996;2023-05-09T00:46:43;98163.16;;;13.38;100.00
72525;BME280;60547;48.502;8.996;2023-05-09T00:49:09;98158.13;;;13.33;100.00
72525;BME280;60547;48.502;8.996;2023-05-09T00:51:38;98100.22;;;12.95;100.00
72525;BME280;60547;48.502;8.996;2023-05-09T00:54:04;98167.63;;;13.35;100.00
72525;BME280;60547;48.502;8.996;2023-05-09T00:56:30;98148.06;;;13.22;100.00
72525;BME280;60547;48.502;8.996;2023-05-09T00:58:56;98129.94;;;13.14;100.00
72525;BME280;60547;48.502;8.996;2023-05-09T01:01:22;98115.88;;;13.05;100.00
72525;BME280;60547;48.502;8.996;2023-05-09T01:03:48;98121.22;;;13.12;100.00
72525;BME280;60547;48.502;8.996;2023-05-09T01:09:00;98108.03;;;13.00;100.00
72525;BME280;60547;48.502;8.996;2023-05-09T01:11:33;98135.88;;;13.16;100.00
72525;BME280;60547;48.502;8.996;2023-05-09T01:16:55;98136.00;;;13.25;100.00
72525;BME280;60547;48.502;8.996;2023-05-09T01:22:00;98137.47;;;13.17;100.00
72525;BME280;60547;48.502;8.996;2023-05-09T01:28:09;98129.75;;;13.21;100.00
72525;BME280;60547;48.502;8.996;2023-05-09T01:30:37;98139.78;;;13.32;100.00
72525;BME280;60547;48.502;8.996;2023-05-09T01:33:05;98129.75;;;13.21;100.00
72525;BME280;60547;48.502;8.996;2023-05-09T01:35:32;98126.38;;;13.27;100.00
72525;BME280;60547;48.502;8.996;2023-05-09T01:38:01;98108.47;;;13.11;100.00
72525;BME280;60547;48.502;8.996;2023-05-09T01:40:30;98103.34;;;12.97;100.00
72525;BME280;60547;48.502;8.996;2023-05-09T01:43:02;98132.28;;;13.16;100.00
72525;BME280;60547;48.502;8.996;2023-05-09T01:45:28;98106.16;;;12.97;100.00
72525;BME280;60547;48.502;8.996;2023-05-09T01:47:55;98112.97;;;12.96;100.00
72525;BME280;60547;48.502;8.996;2023-05-09T01:50:21;98136.31;;;13.15;100.00
72525;BME280;60547;48.502;8.996;2023-05-09T01:52:49;98129.84;;;13.05;100.00
72525;BME280;60547;48.502;8.996;2023-05-09T01:55:17;98126.03;;;13.12;100.00
72525;BME280;60547;48.502;8.996;2023-05-09T01:57:44;98119.56;;;13.02;100.00
72525;BME280;60547;48.502;8.996;2023-05-09T02:00:11;98133.84;;;13.04;100.00
72525;BME280;60547;48.502;8.996;2023-05-09T02:02:39;98109.50;;;12.92;100.00
72525;BME280;60547;48.502;8.996;2023-05-09T02:05:08;98123.03;;;12.93;100.00
72525;BME280;60547;48.502;8.996;2023-05-09T02:07:35;98136.66;;;13.04;100.00
72525;BME280;60547;48.502;8.996;2023-05-09T02:10:01;98114.53;;;12.84;100.00
72525;BME280;60547;48.502;8.996;2023-05-09T02:12:27;98106.38;;;12.77;100.00
72525;BME280;60547;48.502;8.996;2023-05-09T02:14:53;98079.66;;;12.64;100.00
72525;BME280;60547;48.502;8.996;2023-05-09T02:17:18;98110.16;;;12.83;100.00
72525;BME280;60547;48.502;8.996;2023-05-09T02:19:45;98112.06;;;12.86;100.00
72525;BME280;60547;48.502;8.996;2023-05-09T02:22:12;98124.91;;;12.97;100.00
72525;BME280;60547;48.502;8.996;2023-05-09T02:24:37;98098.78;;;12.78;100.00
72525;BME280;60547;48.502;8.996;2023-05-09T02:27:03;98102.25;;;12.82;100.00
72525;BME280;60547;48.502;8.996;2023-05-09T02:29:33;98098.88;;;12.87;100.00
72525;BME280;60547;48.502;8.996;2023-05-09T02:32:14;98110.63;;;12.94;100.00
72525;BME280;60547;48.502;8.996;2023-05-09T02:34:41;98101.22;;;13.01;100.00
72525;BME280;60547;48.502;8.996;2023-05-09T02:37:07;98103.69;;;12.99;100.00
72525;BME280;60547;48.502;8.996;2023-05-09T02:39:33;98108.59;;;13.08;100.00
72525;BME280;60547;48.502;8.996;2023-05-09T02:42:07;98115.41;;;13.07;100.00
72525;BME280;60547;48.502;8.996;2023-05-09T02:44:33;98094.84;;;13.01;100.00
72525;BME280;60547;48.502;8.996;2023-05-09T02:47:00;98108.47;;;13.11;100.00
72525;BME280;60547;48.502;8.996;2023-05-09T02:49:26;98087.25;;;13.01;100.00
72525;BME280;60547;48.502;8.996;2023-05-09T02:51:51;98071.63;;;12.91;100.00
72525;BME280;60547;48.502;8.996;2023-05-09T02:54:17;98100.44;;;13.13;100.00
72525;BME280;60547;48.502;8.996;2023-05-09T02:56:42;98084.47;;;13.01;100.00
72525;BME280;60547;48.502;8.996;2023-05-09T02:59:08;98067.94;;;12.94;100.00
72525;BME280;60547;48.502;8.996;2023-05-09T03:01:33;98086.38;;;13.04;100.00
72525;BME280;60547;48.502;8.996;2023-05-09T03:03:58;98063.03;;;12.85;100.00
72525;BME280;60547;48.502;8.996;2023-05-09T03:06:24;98080.88;;;13.01;100.00
72525;BME280;60547;48.502;8.996;2023-05-09T03:08:49;98075.97;;;13.05;100.00
72525;BME280;60547;48.502;8.996;2023-05-09T03:11:15;98080.09;;;13.00;100.00
72525;BME280;60547;48.502;8.996;2023-05-09T03:13:40;98057.00;;;12.87;100.00
72525;BME280;60547;48.502;8.996;2023-05-09T03:16:06;98069.84;;;12.97;100.00
72525;BME280;60547;48.502;8.996;2023-05-09T03:18:31;98075.41;;;12.97;100.00
72525;BME280;60547;48.502;8.996;2023-05-09T03:20:57;98068.50;;;12.89;100.00
72525;BME280;60547;48.502;8.996;2023-05-09T03:23:22;98079.44;;;12.96;100.00
72525;BME280;60547;48.502;8.996;2023-05-09T03:25:48;98063.69;;;12.89;100.00
72525;BME280;60547;48.502;8.996;2023-05-09T03:28:13;98089.59;;;13.03;100.00
72525;BME280;60547;48.502;8.996;2023-05-09T03:30:39;98083.22;;;13.02;100.00
72525;BME280;60547;48.502;8.996;2023-05-09T03:33:05;98079.22;;;13.03;100.00
72525;BME280;60547;48.502;8.996;2023-05-09T03:35:31;98067.38;;;12.99;100.00
72525;BME280;60547;48.502;8.996;2023-05-09T03:37:56;98053.97;;;12.94;100.00
72525;BME280;60547;48.502;8.996;2023-05-09T03:40:22;98055.19;;;12.93;100.00
72525;BME280;60547;48.502;8.996;2023-05-09T03:42:47;98061.78;;;12.99;100.00
72525;BME280;60547;48.502;8.996;2023-05-09T03:45:13;98054.31;;;12.96;100.00
72525;BME280;60547;48.502;8.996;2023-05-09T03:47:39;98064.91;;;13.01;100.00
72525;BME280;60547;48.502;8.996;2023-05-09T03:50:05;98064.00;;;13.04;100.00
72525;BME280;60547;48.502;8.996;2023-05-09T03:52:30;98056.19;;;12.99;100.00
72525;BME280;60547;48.502;8.996;2023-05-09T03:54:56;98057.44;;;12.98;100.00
72525;BME280;60547;48.502;8.996;2023-05-09T03:57:21;98065.13;;;13.07;100.00
72525;BME280;60547;48.502;8.996;2023-05-09T03:59:47;98047.16;;;12.95;100.00
72525;BME280;60547;48.502;8.996;2023-05-09T04:02:12;98059.56;;;12.94;100.00
72525;BME280;60547;48.502;8.996;2023-05-09T04:04:38;98061.44;;;12.97;100.00
72525;BME280;60547;48.502;8.996;2023-05-09T04:07:03;98069.47;;;13.08;100.00
72525;BME280;60547;48.502;8.996;2023-05-09T04:09:29;98039.34;;;12.77;100.00
72525;BME280;60547;48.502;8.996;2023-05-09T04:11:54;98068.16;;;13.00;100.00
72525;BME280;60547;48.502;8.996;2023-05-09T04:14:20;98030.88;;;12.68;100.00
72525;BME280;60547;48.502;8.996;2023-05-09T04:16:45;97999.59;;;12.48;100.00
72525;BME280;60547;48.502;8.996;2023-05-09T04:19:11;98061.34;;;12.88;100.00
72525;BME280;60547;48.502;8.996;2023-05-09T04:21:36;98057.09;;;12.83;100.00
72525;BME280;60547;48.502;8.996;2023-05-09T04:24:02;98066.59;;;12.86;100.00
72525;BME280;60547;48.502;8.996;2023-05-09T04:26:27;98032.75;;;12.71;100.00
72525;BME280;60547;48.502;8.996;2023-05-09T04:28:54;98021.81;;;12.64;100.00
72525;BME280;60547;48.502;8.996;2023-05-09T04:31:19;98030.88;;;12.68;100.00
72525;BME280;60547;48.502;8.996;2023-05-09T04:33:45;98067.59;;;12.92;100.00
72525;BME280;60547;48.502;8.996;2023-05-09T04:36:10;98057.31;;;12.89;100.00
72525;BME280;60547;48.502;8.996;2023-05-09T04:38:36;98053.09;;;12.84;100.00
72525;BME280;60547;48.502;8.996;2023-05-09T04:41:02;98040.78;;;12.82;100.00
72525;BME280;60547;48.502;8.996;2023-05-09T04:43:27;98044.25;;;12.86;100.00
72525;BME280;60547;48.502;8.996;2023-05-09T04:45:53;98045.38;;;12.88;100.00
72525;BME280;60547;48.502;8.996;2023-05-09T04:48:19;98049.28;;;12.91;100.00
72525;BME280;60547;48.502;8.996;2023-05-09T04:50:44;98043.91;;;12.84;100.00
72525;BME280;60547;48.502;8.996;2023-05-09T04:53:13;98049.16;;;12.94;100.00
72525;BME280;60547;48.502;8.996;2023-05-09T04:55:38;98043.03;;;12.87;100.00
72525;BME280;60547;48.502;8.996;2023-05-09T04:58:03;98050.84;;;12.92;100.00
72525;BME280;60547;48.502;8.996;2023-05-09T05:00:29;98041.22;;;12.93;100.00
72525;BME280;60547;48.502;8.996;2023-05-09T05:02:54;98044.03;;;12.93;100.00
72525;BME280;60547;48.502;8.996;2023-05-09T05:05:20;98045.91;;;12.96;100.00
72525;BME280;60547;48.502;8.996;2023-05-09T05:07:45;98037.53;;;12.96;100.00
72525;BME280;60547;48.502;8.996;2023-05-09T05:10:11;98039.56;;;12.96;100.00
72525;BME280;60547;48.502;8.996;2023-05-09T05:12:39;98045.03;;;12.99;100.00
72525;BME280;60547;48.502;8.996;2023-05-09T05:15:05;98046.59;;;13.00;100.00
72525;BME280;60547;48.502;8.996;2023-05-09T05:17:30;98026.81;;;12.94;100.00
72525;BME280;60547;48.502;8.996;2023-05-09T05:19:56;98039.66;;;13.05;100.00
72525;BME280;60547;48.502;8.996;2023-05-09T05:22:21;98045.69;;;13.03;100.00
72525;BME280;60547;48.502;8.996;2023-05-09T05:24:47;98040.66;;;12.98;100.00
72525;BME280;60547;48.502;8.996;2023-05-09T05:27:12;98036.63;;;12.99;100.00
72525;BME280;60547;48.502;8.996;2023-05-09T05:29:38;98037.19;;;13.07;100.00
72525;BME280;60547;48.502;8.996;2023-05-09T05:32:04;98041.22;;;13.18;100.00
72525;BME280;60547;48.502;8.996;2023-05-09T05:34:29;98051.69;;;13.27;100.00
72525;BME280;60547;48.502;8.996;2023-05-09T05:36:55;98043.69;;;13.16;100.00
72525;BME280;60547;48.502;8.996;2023-05-09T05:39:21;98054.63;;;13.23;100.00
72525;BME280;60547;48.502;8.996;2023-05-09T05:41:46;98053.06;;;13.22;100.00
72525;BME280;60547;48.502;8.996;2023-05-09T05:44:12;98042.88;;;13.16;99.94
72525;BME280;60547;48.502;8.996;2023-05-09T05:46:37;98052.16;;;13.25;100.00
72525;BME280;60547;48.502;8.996;2023-05-09T05:49:02;98048.25;;;13.23;100.00
72525;BME280;60547;48.502;8.996;2023-05-09T05:51:28;98026.22;;;13.12;100.00
72525;BME280;60547;48.502;8.996;2023-05-09T05:53:53;98050.59;;;13.24;100.00
72525;BME280;60547;48.502;8.996;2023-05-09T05:56:19;98054.25;;;13.34;99.85
72525;BME280;60547;48.502;8.996;2023-05-09T05:58:44;98052.31;;;13.44;100.00
72525;BME280;60547;48.502;8.996;2023-05-09T06:01:10;98047.97;;;13.43;100.00
72525;BME280;60547;48.502;8.996;2023-05-09T06:03:35;98047.75;;;13.72;98.63
72525;BME280;60547;48.502;8.996;2023-05-09T06:06:01;98035.84;;;13.80;98.55
72525;BME280;60547;48.502;8.996;2023-05-09T06:08:27;98020.75;;;13.78;97.64
72525;BME280;60547;48.502;8.996;2023-05-09T06:10:52;98019.69;;;14.06;97.73
72525;BME280;60547;48.502;8.996;2023-05-09T06:13:18;98016.19;;;14.15;97.15
72525;BME280;60547;48.502;8.996;2023-05-09T06:15:43;98002.78;;;14.10;97.05
72525;BME280;60547;48.502;8.996;2023-05-09T06:18:09;97999.66;;;14.08;96.37
72525;BME280;60547;48.502;8.996;2023-05-09T06:20:34;97999.06;;;14.13;96.05
72525;BME280;60547;48.502;8.996;2023-05-09T06:23:00;98002.69;;;14.22;96.15
72525;BME280;60547;48.502;8.996;2023-05-09T06:25:25;98011.56;;;14.52;95.46
72525;BME280;60547;48.502;8.996;2023-05-09T06:27:51;98004.28;;;14.33;95.85
72525;BME280;60547;48.502;8.996;2023-05-09T06:30:16;98008.34;;;14.63;94.15
72525;BME280;60547;48.502;8.996;2023-05-09T06:32:42;97992.00;;;14.61;93.11
72525;BME280;60547;48.502;8.996;2023-05-09T06:35:07;97991.63;;;14.99;91.74
72525;BME280;60547;48.502;8.996;2023-05-09T06:37:33;97989.31;;;15.07;90.59
72525;BME280;60547;48.502;8.996;2023-05-09T06:39:58;98000.41;;;15.38;89.99
72525;BME280;60547;48.502;8.996;2023-05-09T06:42:24;97997.47;;;15.60;89.60
72525;BME280;60547;48.502;8.996;2023-05-09T06:44:50;97994.50;;;15.54;90.42
72525;BME280;60547;48.502;8.996;2023-05-09T06:47:16;97999.78;;;15.43;91.82
72525;BME280;60547;48.502;8.996;2023-05-09T06:49:41;97983.88;;;15.31;93.35
72525;BME280;60547;48.502;8.996;2023-05-09T06:52:07;98001.97;;;15.48;92.62
72525;BME280;60547;48.502;8.996;2023-05-09T06:54:32;97991.69;;;15.36;93.86
72525;BME280;60547;48.502;8.996;2023-05-09T06:56:58;97980.16;;;15.52;90.36
72525;BME280;60547;48.502;8.996;2023-05-09T06:59:24;97972.53;;;15.62;87.60
72525;BME280;60547;48.502;8.996;2023-05-09T07:01:49;97978.91;;;15.71;90.74
72525;BME280;60547;48.502;8.996;2023-05-09T07:04:14;97965.53;;;15.66;86.36
72525;BME280;60547;48.502;8.996;2023-05-09T07:06:40;97971.13;;;15.75;86.92
72525;BME280;60547;48.502;8.996;2023-05-09T07:09:06;97970.31;;;15.93;85.48
72525;BME280;60547;48.502;8.996;2023-05-09T07:11:35;97952.84;;;15.98;84.70
72525;BME280;60547;48.502;8.996;2023-05-09T07:14:02;97962.66;;;15.94;84.44
72525;BME280;60547;48.502;8.996;2023-05-09T07:16:28;97962.59;;;16.21;85.71
72525;BME280;60547;48.502;8.996;2023-05-09T07:18:54;97963.63;;;16.33;85.05
72525;BME280;60547;48.502;8.996;2023-05-09T07:21:20;97947.66;;;16.48;83.22
72525;BME280;60547;48.502;8.996;2023-05-09T07:23:45;97945.03;;;16.44;84.16
72525;BME280;60547;48.502;8.996;2023-05-09T07:26:10;97931.66;;;16.30;83.79
72525;BME280;60547;48.502;8.996;2023-05-09T07:28:36;97933.31;;;16.46;86.46
72525;BME280;60547;48.502;8.996;2023-05-09T07:31:01;97929.81;;;16.27;83.88
72525;BME280;60547;48.502;8.996;2023-05-09T07:33:27;97921.75;;;16.11;85.21
72525;BME280;60547;48.502;8.996;2023-05-09T07:35:53;97913.28;;;16.20;86.60
72525;BME280;60547;48.502;8.996;2023-05-09T07:38:21;97900.25;;;16.08;84.92
72525;BME280;60547;48.502;8.996;2023-05-09T07:40:46;97922.84;;;16.46;84.67
72525;BME280;60547;48.502;8.996;2023-05-09T07:43:11;97920.34;;;16.48;84.56
72525;BME280;60547;48.502;8.996;2023-05-09T07:45:37;97899.13;;;16.47;84.62
72525;BME280;60547;48.502;8.996;2023-05-09T07:48:02;97893.28;;;16.60;86.42
72525;BME280;60547;48.502;8.996;2023-05-09T07:50:28;97905.50;;;16.81;84.68
72525;BME280;60547;48.502;8.996;2023-05-09T07:52:54;97894.88;;;16.85;84.56
72525;BME280;60547;48.502;8.996;2023-05-09T07:55:20;97900.84;;;17.02;83.16
72525;BME280;60547;48.502;8.996;2023-05-09T07:57:45;97893.97;;;16.79;83.12
72525;BME280;60547;48.502;8.996;2023-05-09T08:00:11;97885.13;;;16.71;83.47
72525;BME280;60547;48.502;8.996;2023-05-09T08:02:37;97894.63;;;16.74;83.12
72525;BME280;60547;48.502;8.996;2023-05-09T08:05:02;97880.22;;;16.81;83.84
72525;BME280;60547;48.502;8.996;2023-05-09T08:07:28;97870.59;;;16.73;83.00
72525;BME280;60547;48.502;8.996;2023-05-09T08:09:53;97877.81;;;16.65;81.54
72525;BME280;60547;48.502;8.996;2023-05-09T08:12:19;97865.88;;;16.79;80.54
72525;BME280;60547;48.502;8.996;2023-05-09T08:14:44;97875.47;;;16.87;82.35
72525;BME280;60547;48.502;8.996;2023-05-09T08:17:10;97871.47;;;17.03;83.68
72525;BME280;60547;48.502;8.996;2023-05-09T08:19:35;97867.31;;;17.13;80.49
72525;BME280;60547;48.502;8.996;2023-05-09T08:22:00;97856.69;;;17.32;83.37
72525;BME280;60547;48.502;8.996;2023-05-09T08:24:26;97856.75;;;17.23;82.86
72525;BME280;60547;48.502;8.996;2023-05-09T08:26:51;97860.94;;;17.27;82.40
72525;BME280;60547;48.502;8.996;2023-05-09T08:29:17;97852.97;;;17.26;81.98
72525;BME280;60547;48.502;8.996;2023-05-09T08:31:42;97838.00;;;17.05;82.93
72525;BME280;60547;48.502;8.996;2023-05-09T08:34:08;97845.16;;;16.91;81.29
72525;BME280;60547;48.502;8.996;2023-05-09T08:36:33;97841.97;;;16.98;82.32
72525;BME280;60547;48.502;8.996;2023-05-09T08:38:59;97838.34;;;16.83;83.88
72525;BME280;60547;48.502;8.996;2023-05-09T08:41:25;97841.28;;;16.89;84.92
72525;BME280;60547;48.502;8.996;2023-05-09T08:43:54;97845.28;;;16.73;82.69
72525;BME280;60547;48.502;8.996;2023-05-09T08:46:37;97841.53;;;16.76;83.27
72525;BME280;60547;48.502;8.996;2023-05-09T08:49:04;97834.09;;;16.88;81.47
72525;BME280;60547;48.502;8.996;2023-05-09T08:51:34;97830.31;;;16.91;79.77
72525;BME280;60547;48.502;8.996;2023-05-09T08:54:01;97822.63;;;16.76;79.71
72525;BME280;60547;48.502;8.996;2023-05-09T08:56:28;97824.00;;;16.81;80.51
72525;BME280;60547;48.502;8.996;2023-05-09T08:58:54;97816.34;;;16.82;82.21
72525;BME280;60547;48.502;8.996;2023-05-09T09:01:20;97830.13;;;16.94;80.12
72525;BME280;60547;48.502;8.996;2023-05-09T09:03:47;97812.16;;;16.77;81.73
72525;BME280;60547;48.502;8.996;2023-05-09T09:06:15;97809.06;;;16.75;80.45
72525;BME280;60547;48.502;8.996;2023-05-09T09:08:41;97811.50;;;16.82;76.53
72525;BME280;60547;48.502;8.996;2023-05-09T09:11:12;97807.91;;;16.82;76.63
72525;BME280;60547;48.502;8.996;2023-05-09T09:13:40;97806.19;;;16.84;77.25
72525;BME280;60547;48.502;8.996;2023-05-09T09:16:09;97804.94;;;17.00;77.30
72525;BME280;60547;48.502;8.996;2023-05-09T09:18:35;97808.75;;;17.11;77.60
72525;BME280;60547;48.502;8.996;2023-05-09T09:21:09;97807.38;;;17.07;76.37
72525;BME280;60547;48.502;8.996;2023-05-09T09:23:38;97791.75;;;17.06;76.62
72525;BME280;60547;48.502;8.996;2023-05-09T09:26:04;97798.47;;;17.23;77.03
72525;BME280;60547;48.502;8.996;2023-05-09T09:28:29;97792.84;;;17.38;76.64
72525;BME280;60547;48.502;8.996;2023-05-09T09:30:55;97790.69;;;17.62;77.48
72525;BME280;60547;48.502;8.996;2023-05-09T09:33:22;97784.09;;;17.80;76.12
72525;BME280;60547;48.502;8.996;2023-05-09T09:35:53;97782.44;;;17.88;74.96
72525;BME280;60547;48.502;8.996;2023-05-09T09:38:19;97768.59;;;17.70;76.05
72525;BME280;60547;48.502;8.996;2023-05-09T09:43:18;97760.44;;;17.57;75.14
72525;BME280;60547;48.502;8.996;2023-05-09T09:45:48;97771.41;;;17.55;75.09
72525;BME280;60547;48.502;8.996;2023-05-09T09:48:14;97763.34;;;17.63;75.63
72525;BME280;60547;48.502;8.996;2023-05-09T09:50:40;97756.75;;;17.66;75.08
72525;BME280;60547;48.502;8.996;2023-05-09T09:53:05;97737.19;;;17.92;74.18
72525;BME280;60547;48.502;8.996;2023-05-09T09:55:33;97743.75;;;18.03;74.68
72525;BME280;60547;48.502;8.996;2023-05-09T09:57:59;97740.94;;;18.24;74.95
72525;BME280;60547;48.502;8.996;2023-05-09T10:00:26;97721.84;;;18.33;71.25
72525;BME280;60547;48.502;8.996;2023-05-09T10:02:56;97729.69;;;18.64;69.89
72525;BME280;60547;48.502;8.996;2023-05-09T10:05:27;97744.13;;;18.72;68.83
72525;BME280;60547;48.502;8.996;2023-05-09T10:08:03;97708.75;;;18.71;70.42
72525;BME280;60547;48.502;8.996;2023-05-09T10:10:31;97716.03;;;18.83;68.12
72525;BME280;60547;48.502;8.996;2023-05-09T10:13:00;97700.78;;;18.69;67.55
72525;BME280;60547;48.502;8.996;2023-05-09T10:15:27;97697.84;;;19.10;66.73
72525;BME280;60547;48.502;8.996;2023-05-09T10:17:56;97683.13;;;19.32;65.87
72525;BME280;60547;48.502;8.996;2023-05-09T10:20:22;97693.16;;;19.33;65.04
72525;BME280;60547;48.502;8.996;2023-05-09T10:22:49;97700.84;;;19.32;64.98
72525;BME280;60547;48.502;8.996;2023-05-09T10:25:26;97676.91;;;19.54;68.57
72525;BME280;60547;48.502;8.996;2023-05-09T10:27:53;97689.06;;;19.65;64.04
72525;BME280;60547;48.502;8.996;2023-05-09T10:30:35;97686.44;;;19.56;63.63
72525;BME280;60547;48.502;8.996;2023-05-09T10:33:09;97688.81;;;19.69;64.58
72525;BME280;60547;48.502;8.996;2023-05-09T10:35:45;97674.66;;;19.63;63.93
72525;BME280;60547;48.502;8.996;2023-05-09T10:38:11;97677.41;;;19.52;62.96
72525;BME280;60547;48.502;8.996;2023-05-09T10:40:39;97660.97;;;19.51;62.51
72525;BME280;60547;48.502;8.996;2023-05-09T10:43:05;97663.66;;;19.34;61.85
72525;BME280;60547;48.502;8.996;2023-05-09T10:45:32;97656.66;;;19.24;64.15
72525;BME280;60547;48.502;8.996;2023-05-09T10:47:59;97652.56;;;19.25;62.96
72525;BME280;60547;48.502;8.996;2023-05-09T10:50:26;97657.19;;;18.96;64.08
72525;BME280;60547;48.502;8.996;2023-05-09T10:53:08;97646.78;;;19.08;65.75
72525;BME280;60547;48.502;8.996;2023-05-09T10:55:55;97649.56;;;19.02;66.53
72525;BME280;60547;48.502;8.996;2023-05-09T10:58:32;97648.34;;;19.09;64.69
72525;BME280;60547;48.502;8.996;2023-05-09T11:01:01;97639.81;;;19.03;67.56
72525;BME280;60547;48.502;8.996;2023-05-09T11:03:57;97632.53;;;18.91;66.59
72525;BME280;60547;48.502;8.996;2023-05-09T11:09:32;97622.13;;;19.03;68.88
72525;BME280;60547;48.502;8.996;2023-05-09T11:14:32;97608.81;;;19.03;71.08
72525;BME280;60547;48.502;8.996;2023-05-09T11:17:10;97597.47;;;18.98;71.00
72525;BME280;60547;48.502;8.996;2023-05-09T11:19:55;97598.63;;;18.80;71.17
72525;BME280;60547;48.502;8.996;2023-05-09T11:22:27;97600.88;;;18.76;73.76
72525;BME280;60547;48.502;8.996;2023-05-09T11:25:02;97606.91;;;18.89;76.32
72525;BME280;60547;48.502;8.996;2023-05-09T11:27:47;97596.97;;;18.68;75.65
72525;BME280;60547;48.502;8.996;2023-05-09T11:30:16;97581.16;;;18.76;73.87
72525;BME280;60547;48.502;8.996;2023-05-09T11:32:49;97580.94;;;18.54;72.41
72525;BME280;60547;48.502;8.996;2023-05-09T11:35:19;97579.09;;;18.51;75.97
72525;BME280;60547;48.502;8.996;2023-05-09T11:40:25;97572.09;;;18.40;79.30
72525;BME280;60547;48.502;8.996;2023-05-09T11:42:52;97572.66;;;18.45;81.31
72525;BME280;60547;48.502;8.996;2023-05-09T11:45:20;97565.00;;;18.51;77.03
72525;BME280;60547;48.502;8.996;2023-05-09T11:47:48;97561.91;;;18.75;80.66
72525;BME280;60547;48.502;8.996;2023-05-09T11:50:15;97551.31;;;18.64;76.32
72525;BME280;60547;48.502;8.996;2023-05-09T11:52:41;97556.13;;;18.89;74.09
72525;BME280;60547;48.502;8.996;2023-05-09T11:55:12;97550.72;;;18.86;74.88
72525;BME280;60547;48.502;8.996;2023-05-09T11:57:46;97545.53;;;19.16;78.67
72525;BME280;60547;48.502;8.996;2023-05-09T12:00:21;97543.34;;;19.36;74.14
72525;BME280;60547;48.502;8.996;2023-05-09T12:02:47;97542.53;;;19.73;73.30
72525;BME280;60547;48.502;8.996;2023-05-09T12:05:15;97533.09;;;19.93;69.72
72525;BME280;60547;48.502;8.996;2023-05-09T12:07:41;97513.56;;;19.84;68.38
72525;BME280;60547;48.502;8.996;2023-05-09T12:10:12;97514.13;;;20.05;67.60
72525;BME280;60547;48.502;8.996;2023-05-09T12:12:46;97512.06;;;20.05;68.40
72525;BME280;60547;48.502;8.996;2023-05-09T12:15:12;97511.84;;;20.20;67.18
72525;BME280;60547;48.502;8.996;2023-05-09T12:17:39;97510.28;;;20.08;66.65
72525;BME280;60547;48.502;8.996;2023-05-09T12:20:05;97511.28;;;19.93;68.95
72525;BME280;60547;48.502;8.996;2023-05-09T12:22:31;97493.28;;;19.91;69.18
72525;BME280;60547;48.502;8.996;2023-05-09T12:24:59;97499.97;;;19.88;67.97
72525;BME280;60547;48.502;8.996;2023-05-09T12:27:27;97499.38;;;19.61;64.54
72525;BME280;60547;48.502;8.996;2023-05-09T12:29:53;97494.25;;;19.65;63.93
72525;BME280;60547;48.502;8.996;2023-05-09T12:32:19;97479.28;;;19.48;65.51
72525;BME280;60547;48.502;8.996;2023-05-09T12:34:45;97485.75;;;19.54;64.71
72525;BME280;60547;48.502;8.996;2023-05-09T12:37:18;97484.75;;;19.63;65.22
72525;BME280;60547;48.502;8.996;2023-05-09T12:40:00;97480.28;;;19.45;63.24
72525;BME280;60547;48.502;8.996;2023-05-09T12:42:27;97470.03;;;19.48;63.72
72525;BME280;60547;48.502;8.996;2023-05-09T12:44:53;97456.88;;;19.28;62.31
72525;BME280;60547;48.502;8.996;2023-05-09T12:47:18;97460.38;;;19.12;63.91
72525;BME280;60547;48.502;8.996;2023-05-09T12:49:48;97465.78;;;19.15;65.64
72525;BME280;60547;48.502;8.996;2023-05-09T12:52:18;97459.06;;;19.07;65.99
72525;BME280;60547;48.502;8.996;2023-05-09T12:54:45;97474.47;;;19.06;67.79
72525;BME280;60547;48.502;8.996;2023-05-09T12:57:23;97470.28;;;18.96;69.23
72525;BME280;60547;48.502;8.996;2023-05-09T12:59:48;97459.38;;;18.72;72.99
72525;BME280;60547;48.502;8.996;2023-05-09T13:02:14;97461.75;;;18.79;72.86
72525;BME280;60547;48.502;8.996;2023-05-09T13:04:39;97462.28;;;18.83;75.80
72525;BME280;60547;48.502;8.996;2023-05-09T13:07:09;97461.00;;;18.84;70.03
72525;BME280;60547;48.502;8.996;2023-05-09T13:09:35;97454.88;;;18.91;68.80
72525;BME280;60547;48.502;8.996;2023-05-09T13:12:02;97451.41;;;18.65;68.83
72525;BME280;60547;48.502;8.996;2023-05-09T13:14:28;97434.28;;;18.74;70.86
72525;BME280;60547;48.502;8.996;2023-05-09T13:16:54;97438.59;;;18.69;70.44